createdAt,value
2017-08-14T00:00:17.044Z,0
2017-08-14T00:01:17.356Z,0
2017-08-14T00:02:17.396Z,0
2017-08-14T00:03:17.111Z,0
2017-08-14T00:04:17.437Z,0
2017-08-14T00:05:32.054Z,0
2017-08-14T00:06:17.467Z,0
2017-08-14T00:08:17.541Z,0
2017-08-14T00:09:17.583Z,0
2017-08-14T00:10:17.277Z,0
2017-08-14T00:11:17.300Z,0
2017-08-14T00:12:31.924Z,0
2017-08-14T00:13:17.646Z,0
2017-08-14T00:16:17.736Z,0
2017-08-14T00:17:17.764Z,0
2017-08-14T00:18:17.760Z,0
2017-08-14T00:19:32.372Z,0
2017-08-14T00:20:32.393Z,0
2017-08-14T00:21:17.859Z,0
2017-08-14T00:22:17.852Z,0
2017-08-14T00:23:17.882Z,0
2017-08-14T00:24:32.501Z,0
2017-08-14T00:25:17.927Z,0
2017-08-14T00:26:17.983Z,0
2017-08-14T00:27:32.584Z,0
2017-08-14T00:28:17.987Z,0
2017-08-14T00:29:17.735Z,0
2017-08-14T00:30:18.052Z,0
2017-08-14T00:31:18.082Z,0
2017-08-14T00:32:17.776Z,0
2017-08-14T00:33:18.148Z,0
2017-08-14T00:34:32.749Z,0
2017-08-14T00:35:17.849Z,0
2017-08-14T00:36:17.876Z,0
2017-08-14T00:37:32.806Z,0
2017-08-14T00:38:18.248Z,0
2017-08-14T00:39:32.864Z,0
2017-08-14T00:40:18.299Z,0
2017-08-14T00:41:18.307Z,0
2017-08-14T00:42:18.046Z,0
2017-08-14T00:43:32.936Z,0
2017-08-14T00:44:18.375Z,0
2017-08-14T00:45:18.406Z,0
2017-08-14T00:46:18.428Z,0
2017-08-14T00:47:18.152Z,0
2017-08-14T00:48:18.463Z,0
2017-08-14T00:49:18.188Z,0
2017-08-14T00:50:18.512Z,0
2017-08-14T00:51:18.551Z,0
2017-08-14T00:52:18.282Z,0
2017-08-14T00:53:18.286Z,0
2017-08-14T00:54:18.321Z,0
2017-08-14T00:55:18.656Z,0
2017-08-14T00:56:33.261Z,0
2017-08-14T00:57:18.711Z,0
2017-08-14T00:58:18.388Z,0
2017-08-14T00:59:33.328Z,0
2017-08-14T01:00:18.747Z,0
2017-08-14T01:01:18.788Z,0
2017-08-14T01:02:18.814Z,0
2017-08-14T01:03:18.531Z,0
2017-08-14T01:04:33.471Z,0
2017-08-14T01:05:18.873Z,0
2017-08-14T01:06:18.881Z,0
2017-08-14T01:07:33.523Z,0
2017-08-14T01:08:33.556Z,0
2017-08-14T01:10:19.017Z,0
2017-08-14T01:11:19.021Z,0
2017-08-14T01:12:18.427Z,0
2017-08-14T01:13:19.066Z,0
2017-08-14T01:14:33.377Z,0
2017-08-14T01:15:33.711Z,0
2017-08-14T01:16:19.136Z,0
2017-08-14T01:17:18.855Z,0
2017-08-14T01:18:19.182Z,0
2017-08-14T01:20:19.229Z,0
2017-08-14T01:21:18.955Z,0
2017-08-14T01:22:19.286Z,0
2017-08-14T01:23:19.310Z,0
2017-08-14T01:25:19.338Z,0
2017-08-14T01:26:33.971Z,0
2017-08-14T01:27:18.778Z,0
2017-08-14T01:28:19.116Z,0
2017-08-14T01:29:19.438Z,0
2017-08-14T01:30:19.466Z,0
2017-08-14T01:31:34.070Z,0
2017-08-14T01:32:19.529Z,0
2017-08-14T01:33:19.524Z,0
2017-08-14T01:34:19.257Z,0
2017-08-14T01:35:19.630Z,0
2017-08-14T01:36:34.201Z,0
2017-08-14T01:37:19.624Z,0
2017-08-14T01:38:34.268Z,0
2017-08-14T01:39:34.282Z,0
2017-08-14T01:40:19.705Z,0
2017-08-14T01:41:48.918Z,0
2017-08-14T01:42:19.764Z,0
2017-08-14T01:43:19.760Z,0
2017-08-14T01:44:34.403Z,0
2017-08-14T01:45:19.506Z,0
2017-08-14T01:46:19.842Z,0
2017-08-14T01:47:34.468Z,0
2017-08-14T01:48:19.885Z,0
2017-08-14T01:49:19.613Z,0
2017-08-14T01:51:19.953Z,0
2017-08-14T01:52:19.999Z,0
2017-08-14T01:54:20.039Z,0
2017-08-14T01:55:20.046Z,0
2017-08-14T01:56:20.063Z,0
2017-08-14T01:57:20.097Z,0
2017-08-14T01:58:34.716Z,0
2017-08-14T01:59:20.156Z,0
2017-08-14T02:00:19.553Z,0
2017-08-14T02:01:20.179Z,0
2017-08-14T02:02:34.835Z,0
2017-08-14T02:03:34.847Z,0
2017-08-14T02:04:20.260Z,0
2017-08-14T02:05:20.288Z,0
2017-08-14T02:06:20.284Z,0
2017-08-14T02:07:20.031Z,0
2017-08-14T02:08:34.941Z,0
2017-08-14T02:09:20.090Z,0
2017-08-14T02:10:20.415Z,0
2017-08-14T02:11:20.427Z,0
2017-08-14T02:12:35.055Z,0
2017-08-14T02:13:20.474Z,0
2017-08-14T02:14:20.476Z,0
2017-08-14T02:15:20.521Z,0
2017-08-14T02:16:20.567Z,0
2017-08-14T02:17:20.826Z,0
2017-08-14T02:18:20.280Z,0
2017-08-14T02:19:35.235Z,0
2017-08-14T02:20:20.641Z,0
2017-08-14T02:21:35.279Z,0
2017-08-14T02:22:20.681Z,0
2017-08-14T02:23:20.706Z,0
2017-08-14T02:24:20.732Z,0
2017-08-14T02:25:35.035Z,0
2017-08-14T02:26:20.791Z,0
2017-08-14T02:27:20.819Z,0
2017-08-14T02:28:35.425Z,0
2017-08-14T02:29:20.835Z,0
2017-08-14T02:30:20.880Z,0
2017-08-14T02:32:20.918Z,0
2017-08-14T02:33:20.943Z,0
2017-08-14T02:34:35.559Z,0
2017-08-14T02:35:20.988Z,0
2017-08-14T02:36:20.691Z,0
2017-08-14T02:37:21.029Z,0
2017-08-14T02:38:21.044Z,0
2017-08-14T02:39:20.787Z,0
2017-08-14T02:40:21.099Z,0
2017-08-14T02:41:20.824Z,0
2017-08-14T02:42:21.170Z,0
2017-08-14T02:43:21.188Z,0
2017-08-14T02:44:21.213Z,0
2017-08-14T02:45:35.510Z,0
2017-08-14T02:46:21.235Z,0
2017-08-14T02:47:21.262Z,0
2017-08-14T02:48:21.274Z,0
2017-08-14T02:49:21.332Z,0
2017-08-14T02:50:35.934Z,0
2017-08-14T02:52:21.408Z,0
2017-08-14T02:53:21.388Z,0
2017-08-14T02:54:21.436Z,0
2017-08-14T02:55:36.039Z,0
2017-08-14T02:56:21.180Z,0
2017-08-14T02:57:36.106Z,0
2017-08-14T02:58:21.235Z,0
2017-08-14T02:59:21.526Z,0
2017-08-14T03:00:36.163Z,0
2017-08-14T03:01:21.612Z,0
2017-08-14T03:02:21.632Z,0
2017-08-14T03:03:21.660Z,0
2017-08-14T03:05:36.296Z,0
2017-08-14T03:06:36.302Z,0
2017-08-14T03:08:21.768Z,0
2017-08-14T03:09:21.798Z,0
2017-08-14T03:10:21.788Z,0
2017-08-14T03:11:21.510Z,0
2017-08-14T03:12:21.852Z,0
2017-08-14T03:14:36.194Z,0
2017-08-14T03:15:21.939Z,0
2017-08-14T03:16:21.644Z,0
2017-08-14T03:17:21.966Z,0
2017-08-14T03:19:22.026Z,0
2017-08-14T03:20:22.045Z,0
2017-08-14T03:21:22.073Z,0
2017-08-14T03:22:36.657Z,0
2017-08-14T03:23:21.815Z,0
2017-08-14T03:24:22.128Z,0
2017-08-14T03:25:22.146Z,0
2017-08-14T03:26:22.179Z,0
2017-08-14T03:28:22.226Z,0
2017-08-14T03:29:21.931Z,0
2017-08-14T03:30:21.983Z,0
2017-08-14T03:32:22.322Z,0
2017-08-14T03:33:36.935Z,0
2017-08-14T03:34:22.071Z,0
2017-08-14T03:35:22.391Z,0
2017-08-14T03:37:51.630Z,0
2017-08-14T03:38:51.664Z,0
2017-08-14T03:39:22.194Z,0
2017-08-14T03:40:37.109Z,0
2017-08-14T03:41:22.530Z,0
2017-08-14T03:42:37.153Z,0
2017-08-14T03:43:22.569Z,0
2017-08-14T03:44:22.589Z,0
2017-08-14T03:45:22.638Z,0
2017-08-14T03:46:22.693Z,0
2017-08-14T03:47:22.678Z,0
2017-08-14T03:48:22.374Z,0
2017-08-14T03:49:22.732Z,0
2017-08-14T03:50:22.748Z,0
2017-08-14T03:51:37.413Z,5
2017-08-14T03:52:22.802Z,5
2017-08-14T03:53:22.816Z,5
2017-08-14T03:54:22.824Z,5
2017-08-14T03:55:22.868Z,5
2017-08-14T03:56:37.466Z,5
2017-08-14T03:57:22.908Z,5
2017-08-14T03:58:22.930Z,5
2017-08-14T03:59:37.531Z,5
2017-08-14T04:00:22.680Z,5
2017-08-14T04:01:23.001Z,10
2017-08-14T04:02:22.716Z,10
2017-08-14T04:03:37.651Z,10
2017-08-14T04:05:22.782Z,10
2017-08-14T04:06:22.817Z,10
2017-08-14T04:07:22.847Z,10
2017-08-14T04:08:37.453Z,10
2017-08-14T04:09:37.775Z,10
2017-08-14T04:10:37.816Z,10
2017-08-14T04:11:23.237Z,10
2017-08-14T04:12:22.933Z,10
2017-08-14T04:13:23.290Z,15
2017-08-14T04:14:22.980Z,15
2017-08-14T04:15:22.695Z,15
2017-08-14T04:16:23.333Z,15
2017-08-14T04:17:23.374Z,20
2017-08-14T04:18:23.069Z,20
2017-08-14T04:19:23.437Z,20
2017-08-14T04:20:23.137Z,25
2017-08-14T04:21:23.473Z,25
2017-08-14T04:22:23.478Z,30
2017-08-14T04:23:23.525Z,30
2017-08-14T04:24:23.522Z,35
2017-08-14T04:25:38.168Z,40
2017-08-14T04:26:23.325Z,40
2017-08-14T04:27:23.615Z,45
2017-08-14T04:28:23.639Z,45
2017-08-14T04:29:23.648Z,45
2017-08-14T04:30:23.365Z,45
2017-08-14T04:31:23.725Z,50
2017-08-14T04:32:23.377Z,50
2017-08-14T04:33:38.347Z,55
2017-08-14T04:34:23.448Z,60
2017-08-14T04:35:23.525Z,60
2017-08-14T04:37:23.522Z,65
2017-08-14T04:38:23.552Z,75
2017-08-14T04:39:23.861Z,70
2017-08-14T04:40:23.921Z,75
2017-08-14T04:41:38.542Z,80
2017-08-14T04:42:23.950Z,80
2017-08-14T04:43:38.582Z,85
2017-08-14T04:44:24.007Z,90
2017-08-14T04:45:38.627Z,110
2017-08-14T04:46:38.625Z,120
2017-08-14T04:47:38.676Z,125
2017-08-14T04:48:38.391Z,115
2017-08-14T04:50:24.170Z,110
2017-08-14T04:52:38.489Z,140
2017-08-14T04:53:23.886Z,165
2017-08-14T04:54:24.236Z,235
2017-08-14T04:55:38.863Z,275
2017-08-14T04:56:38.584Z,145
2017-08-14T04:57:38.910Z,140
2017-08-14T04:58:38.922Z,155
2017-08-14T04:59:24.371Z,290
2017-08-14T05:00:24.396Z,315
2017-08-14T05:01:39.013Z,625
2017-08-14T05:02:24.421Z,660
2017-08-14T05:03:24.465Z,645
2017-08-14T05:04:24.482Z,630
2017-08-14T05:05:24.536Z,555
2017-08-14T05:06:24.520Z,600
2017-08-14T05:07:24.567Z,410
2017-08-14T05:08:24.569Z,615
2017-08-14T05:09:24.627Z,700
2017-08-14T05:10:24.619Z,715
2017-08-14T05:11:24.356Z,745
2017-08-14T05:12:39.293Z,760
2017-08-14T05:13:24.725Z,755
2017-08-14T05:14:24.745Z,740
2017-08-14T05:15:24.753Z,705
2017-08-14T05:16:24.804Z,580
2017-08-14T05:17:24.500Z,760
2017-08-14T05:18:24.861Z,695
2017-08-14T05:19:24.856Z,770
2017-08-14T05:20:24.914Z,835
2017-08-14T05:21:24.945Z,850
2017-08-14T05:22:39.561Z,875
2017-08-14T05:23:39.595Z,890
2017-08-14T05:24:25.019Z,900
2017-08-14T05:25:25.049Z,910
2017-08-14T05:26:24.453Z,885
2017-08-14T05:27:25.087Z,910
2017-08-14T05:28:39.726Z,930
2017-08-14T05:29:24.833Z,935
2017-08-14T05:30:25.213Z,930
2017-08-14T05:31:39.824Z,970
2017-08-14T05:32:24.936Z,975
2017-08-14T05:33:25.286Z,980
2017-08-14T05:34:25.287Z,970
2017-08-14T05:35:25.352Z,975
2017-08-14T05:36:25.060Z,970
2017-08-14T05:37:25.104Z,990
2017-08-14T05:38:25.126Z,1005
2017-08-14T05:39:25.463Z,1005
2017-08-14T05:40:25.522Z,1010
2017-08-14T05:41:25.228Z,1065
2017-08-14T05:42:25.257Z,1050
2017-08-14T05:43:25.262Z,1040
2017-08-14T05:44:40.223Z,1035
2017-08-14T05:45:25.360Z,1040
2017-08-14T05:46:25.696Z,1045
2017-08-14T05:47:25.119Z,1040
2017-08-14T05:48:25.454Z,1045
2017-08-14T05:49:40.410Z,1040
2017-08-14T05:50:25.811Z,1120
2017-08-14T05:51:40.460Z,1155
2017-08-14T05:52:25.599Z,1100
2017-08-14T05:53:25.613Z,1060
2017-08-14T05:54:40.545Z,1115
2017-08-14T05:55:26.001Z,1110
2017-08-14T05:56:40.625Z,1080
2017-08-14T05:57:26.080Z,1130
2017-08-14T05:58:40.684Z,1125
2017-08-14T05:59:26.122Z,1120
2017-08-14T06:00:55.371Z,1105
2017-08-14T06:01:26.165Z,1115
2017-08-14T06:02:25.923Z,1120
2017-08-14T06:03:25.972Z,1180
2017-08-14T06:04:26.309Z,1160
2017-08-14T06:05:26.324Z,1110
2017-08-14T06:06:26.377Z,1130
2017-08-14T06:07:26.103Z,1145
2017-08-14T06:08:26.442Z,1130
2017-08-14T06:09:26.463Z,1125
2017-08-14T06:10:26.562Z,1120
2017-08-14T06:11:26.549Z,1165
2017-08-14T06:12:26.579Z,1150
2017-08-14T06:13:26.310Z,1130
2017-08-14T06:14:26.631Z,1170
2017-08-14T06:15:41.294Z,1170
2017-08-14T06:16:40.998Z,1145
2017-08-14T06:17:41.358Z,1140
2017-08-14T06:18:26.758Z,1145
2017-08-14T06:19:26.824Z,1135
2017-08-14T06:20:41.467Z,1165
2017-08-14T06:21:26.904Z,1175
2017-08-14T06:22:26.933Z,1165
2017-08-14T06:23:26.988Z,1155
2017-08-14T06:24:26.983Z,1145
2017-08-14T06:25:27.051Z,1165
2017-08-14T06:26:27.063Z,1180
2017-08-14T06:27:27.115Z,1160
2017-08-14T06:28:27.155Z,1160
2017-08-14T06:30:41.814Z,1140
2017-08-14T06:31:26.986Z,1165
2017-08-14T06:32:56.483Z,1135
2017-08-14T06:33:27.316Z,1140
2017-08-14T06:34:27.377Z,1105
2017-08-14T06:35:27.415Z,1050
2017-08-14T06:36:42.037Z,1040
2017-08-14T06:37:27.489Z,1010
2017-08-14T06:38:41.796Z,1010
2017-08-14T06:39:27.237Z,1025
2017-08-14T06:40:27.275Z,980
2017-08-14T06:41:27.645Z,900
2017-08-14T06:42:42.271Z,860
2017-08-14T06:43:27.419Z,855
2017-08-14T06:44:27.713Z,850
2017-08-14T06:45:27.771Z,805
2017-08-14T06:46:27.494Z,790
2017-08-14T06:47:42.134Z,770
2017-08-14T06:48:42.157Z,705
2017-08-14T06:49:27.595Z,690
2017-08-14T06:50:27.951Z,680
2017-08-14T06:51:28.020Z,695
2017-08-14T06:52:28.023Z,705
2017-08-14T06:53:27.442Z,640
2017-08-14T06:54:27.174Z,610
2017-08-14T06:55:27.504Z,600
2017-08-14T06:56:28.187Z,605
2017-08-14T06:57:27.885Z,590
2017-08-14T06:58:27.938Z,605
2017-08-14T06:59:28.265Z,640
2017-08-14T07:00:28.334Z,650
2017-08-14T07:01:42.650Z,635
2017-08-14T07:02:28.388Z,640
2017-08-14T07:03:57.324Z,695
2017-08-14T07:04:28.475Z,755
2017-08-14T07:05:28.531Z,1120
2017-08-14T07:06:28.573Z,1550
2017-08-14T07:07:28.273Z,1775
2017-08-14T07:08:28.312Z,1785
2017-08-14T07:09:28.655Z,1800
2017-08-14T07:10:28.675Z,1680
2017-08-14T07:11:28.134Z,1470
2017-08-14T07:12:28.464Z,1320
2017-08-14T07:13:28.526Z,1235
2017-08-14T07:14:43.150Z,1165
2017-08-14T07:15:28.903Z,1225
2017-08-14T07:16:43.515Z,1345
2017-08-14T07:17:28.960Z,1370
2017-08-14T07:18:43.275Z,1295
2017-08-14T07:19:43.326Z,1285
2017-08-14T07:20:29.119Z,1255
2017-08-14T07:21:29.122Z,1185
2017-08-14T07:22:29.157Z,1165
2017-08-14T07:23:29.171Z,1165
2017-08-14T07:24:29.230Z,1185
2017-08-14T07:25:29.267Z,1180
2017-08-14T07:26:28.973Z,1150
2017-08-14T07:27:29.349Z,1110
2017-08-14T07:28:29.051Z,1095
2017-08-14T07:29:29.094Z,1155
2017-08-14T07:31:29.492Z,1090
2017-08-14T07:32:29.224Z,1105
2017-08-14T07:33:44.154Z,1125
2017-08-14T07:34:29.607Z,1145
2017-08-14T07:35:58.817Z,1120
2017-08-14T07:36:43.980Z,1070
2017-08-14T07:37:29.709Z,1065
2017-08-14T07:38:44.066Z,1130
2017-08-14T07:39:29.779Z,1160
2017-08-14T07:40:29.535Z,1115
2017-08-14T07:41:29.840Z,1070
2017-08-14T07:42:29.606Z,1045
2017-08-14T07:43:29.917Z,1010
2017-08-14T07:45:44.619Z,980
2017-08-14T07:46:44.632Z,1015
2017-08-14T07:47:29.795Z,1005
2017-08-14T07:48:30.118Z,985
2017-08-14T07:49:30.182Z,985
2017-08-14T07:50:44.804Z,1000
2017-08-14T07:51:44.838Z,995
2017-08-14T07:52:29.970Z,990
2017-08-14T07:53:30.296Z,985
2017-08-14T07:55:44.987Z,925
2017-08-14T07:56:29.812Z,885
2017-08-14T07:57:30.469Z,885
2017-08-14T07:58:30.489Z,900
2017-08-14T07:59:30.543Z,905
2017-08-14T08:00:29.945Z,880
2017-08-14T08:01:44.592Z,860
2017-08-14T08:02:30.352Z,875
2017-08-14T08:03:44.990Z,900
2017-08-14T08:04:30.400Z,895
2017-08-14T08:06:30.498Z,895
2017-08-14T08:07:45.125Z,865
2017-08-14T08:08:45.475Z,845
2017-08-14T08:09:30.616Z,845
2017-08-14T08:10:30.630Z,850
2017-08-14T08:11:30.996Z,840
2017-08-14T08:12:30.700Z,830
2017-08-14T08:13:45.358Z,850
2017-08-14T08:14:30.799Z,830
2017-08-14T08:15:31.137Z,830
2017-08-14T08:16:45.793Z,820
2017-08-14T08:17:31.178Z,810
2017-08-14T08:18:31.245Z,795
2017-08-14T08:19:31.268Z,785
2017-08-14T08:20:45.926Z,800
2017-08-14T08:21:31.398Z,805
2017-08-14T08:22:45.988Z,765
2017-08-14T08:23:31.436Z,745
2017-08-14T08:24:31.132Z,720
2017-08-14T08:25:31.510Z,715
2017-08-14T08:26:45.805Z,675
2017-08-14T08:27:30.968Z,665
2017-08-14T08:28:31.295Z,655
2017-08-14T08:29:31.661Z,625
2017-08-14T08:30:31.658Z,600
2017-08-14T08:31:31.705Z,595
2017-08-14T08:32:31.747Z,580
2017-08-14T08:33:31.791Z,565
2017-08-14T08:34:31.196Z,570
2017-08-14T08:35:31.873Z,550
2017-08-14T08:36:31.894Z,550
2017-08-14T08:37:31.940Z,540
2017-08-14T08:38:31.664Z,535
2017-08-14T08:39:31.699Z,525
2017-08-14T08:40:31.728Z,515
2017-08-14T08:41:31.779Z,510
2017-08-14T08:42:31.844Z,515
2017-08-14T08:43:31.862Z,510
2017-08-14T08:44:31.861Z,505
2017-08-14T08:45:46.841Z,500
2017-08-14T08:46:31.950Z,495
2017-08-14T08:47:31.969Z,490
2017-08-14T08:48:32.026Z,485
2017-08-14T08:49:32.056Z,475
2017-08-14T08:50:32.108Z,475
2017-08-14T08:51:32.144Z,475
2017-08-14T08:52:32.173Z,470
2017-08-14T08:53:47.101Z,470
2017-08-14T08:54:46.832Z,465
2017-08-14T08:55:32.269Z,465
2017-08-14T08:56:32.616Z,465
2017-08-14T08:57:47.263Z,465
2017-08-14T08:58:32.057Z,470
2017-08-14T08:59:32.428Z,465
2017-08-14T09:00:32.781Z,470
2017-08-14T09:01:32.794Z,470
2017-08-14T09:02:32.541Z,470
2017-08-14T09:03:32.540Z,470
2017-08-14T09:04:32.903Z,190
2017-08-14T09:05:32.663Z,195
2017-08-14T09:06:32.990Z,405
2017-08-14T09:07:33.023Z,245
2017-08-14T09:08:47.658Z,380
2017-08-14T09:09:33.112Z,440
2017-08-14T09:10:47.407Z,465
2017-08-14T09:11:32.861Z,450
2017-08-14T09:12:32.871Z,455
2017-08-14T09:13:47.852Z,455
2017-08-14T09:14:47.546Z,270
2017-08-14T09:15:32.987Z,425
2017-08-14T09:16:47.628Z,395
2017-08-14T09:17:32.765Z,310
2017-08-14T09:18:33.081Z,425
2017-08-14T09:19:32.515Z,285
2017-08-14T09:20:32.826Z,195
2017-08-14T09:21:32.570Z,210
2017-08-14T09:22:33.232Z,240
2017-08-14T09:23:33.584Z,365
2017-08-14T09:24:33.315Z,370
2017-08-14T09:25:33.343Z,370
2017-08-14T09:26:48.277Z,365
2017-08-14T09:28:33.728Z,365
2017-08-14T09:29:33.802Z,365
2017-08-14T09:30:33.801Z,370
2017-08-14T09:31:33.836Z,360
2017-08-14T09:32:33.878Z,250
2017-08-14T09:33:33.925Z,220
2017-08-14T09:34:33.358Z,225
2017-08-14T09:35:48.276Z,360
2017-08-14T09:36:33.702Z,340
2017-08-14T09:37:33.735Z,275
2017-08-14T09:38:33.460Z,365
2017-08-14T09:39:33.806Z,370
2017-08-14T09:40:33.854Z,370
2017-08-14T09:41:48.781Z,380
2017-08-14T09:42:48.209Z,365
2017-08-14T09:43:33.942Z,360
2017-08-14T09:44:33.663Z,355
2017-08-14T09:45:34.017Z,355
2017-08-14T09:46:34.369Z,350
2017-08-14T09:47:34.413Z,210
2017-08-14T09:48:34.433Z,180
2017-08-14T09:49:49.060Z,185
2017-08-14T09:50:34.474Z,185
2017-08-14T09:52:33.928Z,175
2017-08-14T09:53:34.611Z,180
2017-08-14T09:54:34.640Z,270
2017-08-14T09:55:34.053Z,330
2017-08-14T09:56:49.295Z,335
2017-08-14T09:57:49.029Z,335
2017-08-14T09:58:49.377Z,335
2017-08-14T09:59:49.414Z,330
2017-08-14T10:00:34.522Z,325
2017-08-14T10:01:34.917Z,335
2017-08-14T10:02:49.515Z,180
2017-08-14T10:03:34.913Z,335
2017-08-14T10:04:34.661Z,330
2017-08-14T10:06:49.319Z,340
2017-08-14T10:07:35.072Z,330
2017-08-14T10:08:35.100Z,335
2017-08-14T10:09:35.132Z,170
2017-08-14T10:10:34.855Z,335
2017-08-14T10:11:35.215Z,330
2017-08-14T10:12:35.220Z,330
2017-08-14T10:13:35.269Z,325
2017-08-14T10:15:34.697Z,320
2017-08-14T10:16:35.073Z,315
2017-08-14T10:17:35.386Z,315
2017-08-14T10:18:35.433Z,315
2017-08-14T10:19:35.156Z,315
2017-08-14T10:20:50.110Z,310
2017-08-14T10:21:35.517Z,310
2017-08-14T10:22:50.180Z,305
2017-08-14T10:23:35.626Z,310
2017-08-14T10:24:35.620Z,310
2017-08-14T10:25:35.349Z,305
2017-08-14T10:26:35.392Z,305
2017-08-14T10:27:50.033Z,310
2017-08-14T10:28:35.473Z,305
2017-08-14T10:30:35.534Z,295
2017-08-14T10:31:35.565Z,295
2017-08-14T10:32:35.584Z,290
2017-08-14T10:33:35.634Z,290
2017-08-14T10:34:35.994Z,290
2017-08-14T10:35:36.022Z,295
2017-08-14T10:36:36.018Z,300
2017-08-14T10:37:36.073Z,300
2017-08-14T10:38:36.083Z,300
2017-08-14T10:39:36.147Z,295
2017-08-14T10:41:36.210Z,290
2017-08-14T10:42:36.257Z,295
2017-08-14T10:43:36.263Z,295
2017-08-14T10:44:36.311Z,290
2017-08-14T10:45:50.932Z,290
2017-08-14T10:47:51.024Z,295
2017-08-14T10:48:36.122Z,290
2017-08-14T10:49:51.063Z,280
2017-08-14T10:50:50.825Z,275
2017-08-14T10:51:36.528Z,275
2017-08-14T10:52:36.270Z,270
2017-08-14T10:53:36.618Z,265
2017-08-14T10:54:36.319Z,265
2017-08-14T10:55:36.035Z,260
2017-08-14T10:56:50.977Z,260
2017-08-14T10:57:36.431Z,260
2017-08-14T10:58:36.729Z,255
2017-08-14T10:59:36.486Z,255
2017-08-14T11:00:36.830Z,255
2017-08-14T11:01:51.464Z,255
2017-08-14T11:02:36.873Z,260
2017-08-14T11:03:36.610Z,260
2017-08-14T11:04:36.951Z,255
2017-08-14T11:05:51.586Z,255
2017-08-14T11:06:37.027Z,255
2017-08-14T11:08:37.091Z,260
2017-08-14T11:10:37.124Z,165
2017-08-14T11:11:37.177Z,155
2017-08-14T11:12:37.202Z,155
2017-08-14T11:13:37.326Z,150
2017-08-14T11:15:36.976Z,140
2017-08-14T11:16:37.010Z,145
2017-08-14T11:17:51.655Z,215
2017-08-14T11:18:37.094Z,220
2017-08-14T11:19:37.115Z,195
2017-08-14T11:20:37.430Z,215
2017-08-14T11:21:37.492Z,215
2017-08-14T11:22:36.887Z,215
2017-08-14T11:23:36.929Z,215
2017-08-14T11:24:36.962Z,210
2017-08-14T11:25:36.977Z,210
2017-08-14T11:26:52.217Z,205
2017-08-14T11:27:37.065Z,205
2017-08-14T11:28:52.279Z,205
2017-08-14T11:29:37.126Z,210
2017-08-14T11:30:37.771Z,210
2017-08-14T11:31:37.780Z,210
2017-08-14T11:32:52.103Z,205
2017-08-14T11:33:36.909Z,175
2017-08-14T11:34:37.909Z,205
2017-08-14T11:35:37.906Z,205
2017-08-14T11:36:37.644Z,200
2017-08-14T11:37:37.678Z,190
2017-08-14T11:38:37.693Z,195
2017-08-14T11:40:38.058Z,195
2017-08-14T11:41:52.749Z,190
2017-08-14T11:42:52.724Z,190
2017-08-14T11:43:38.154Z,195
2017-08-14T11:44:38.194Z,195
2017-08-14T11:45:38.204Z,185
2017-08-14T11:46:37.948Z,180
2017-08-14T11:47:52.868Z,130
2017-08-14T11:48:38.304Z,130
2017-08-14T11:49:38.324Z,135
2017-08-14T11:50:52.946Z,165
2017-08-14T11:51:38.405Z,175
2017-08-14T11:52:38.470Z,180
2017-08-14T11:53:38.476Z,180
2017-08-14T11:54:52.463Z,180
2017-08-14T11:55:37.897Z,180
2017-08-14T11:56:38.205Z,185
2017-08-14T11:57:52.849Z,190
2017-08-14T11:58:53.231Z,185
2017-08-14T11:59:52.926Z,190
2017-08-14T12:00:38.370Z,190
2017-08-14T12:01:53.290Z,185
2017-08-14T12:02:38.420Z,185
2017-08-14T12:03:38.449Z,180
2017-08-14T12:04:53.367Z,175
2017-08-14T12:05:53.112Z,185
2017-08-14T12:06:53.436Z,185
2017-08-14T12:07:38.883Z,185
2017-08-14T12:08:38.902Z,190
2017-08-14T12:09:38.623Z,190
2017-08-14T12:11:53.596Z,185
2017-08-14T12:12:39.033Z,180
2017-08-14T12:13:39.046Z,180
2017-08-14T12:14:53.666Z,180
2017-08-14T12:15:38.787Z,180
2017-08-14T12:16:53.122Z,180
2017-08-14T12:17:38.863Z,180
2017-08-14T12:18:38.894Z,180
2017-08-14T12:19:39.232Z,180
2017-08-14T12:20:53.853Z,180
2017-08-14T12:21:38.348Z,180
2017-08-14T12:22:39.326Z,180
2017-08-14T12:23:39.022Z,180
2017-08-14T12:24:39.389Z,185
2017-08-14T12:25:39.107Z,185
2017-08-14T12:26:39.443Z,185
2017-08-14T12:27:39.158Z,185
2017-08-14T12:28:39.497Z,185
2017-08-14T12:29:39.528Z,185
2017-08-14T12:30:39.819Z,185
2017-08-14T12:31:39.298Z,185
2017-08-14T12:32:54.201Z,185
2017-08-14T12:33:53.618Z,185
2017-08-14T12:34:54.279Z,190
2017-08-14T12:35:53.982Z,195
2017-08-14T12:36:54.027Z,195
2017-08-14T12:37:39.446Z,195
2017-08-14T12:38:39.468Z,195
2017-08-14T12:39:39.527Z,195
2017-08-14T12:41:39.261Z,200
2017-08-14T12:42:54.204Z,200
2017-08-14T12:43:39.612Z,200
2017-08-14T12:44:39.659Z,200
2017-08-14T12:45:39.982Z,200
2017-08-14T12:46:40.045Z,200
2017-08-14T12:47:39.744Z,200
2017-08-14T12:48:39.484Z,195
2017-08-14T12:49:54.713Z,195
2017-08-14T12:50:40.157Z,195
2017-08-14T12:51:40.155Z,195
2017-08-14T12:52:54.501Z,195
2017-08-14T12:53:39.590Z,195
2017-08-14T12:54:40.311Z,200
2017-08-14T12:55:40.305Z,200
2017-08-14T12:57:40.329Z,195
2017-08-14T12:58:54.980Z,200
2017-08-14T12:59:40.417Z,195
2017-08-14T13:00:40.448Z,195
2017-08-14T13:01:54.755Z,195
2017-08-14T13:02:40.170Z,195
2017-08-14T13:03:40.546Z,195
2017-08-14T13:04:40.241Z,195
2017-08-14T13:05:40.586Z,195
2017-08-14T13:06:40.614Z,200
2017-08-14T13:07:55.240Z,205
2017-08-14T13:08:40.676Z,205
2017-08-14T13:09:40.717Z,210
2017-08-14T13:10:40.444Z,215
2017-08-14T13:11:40.751Z,210
2017-08-14T13:12:40.472Z,180
2017-08-14T13:13:40.828Z,185
2017-08-14T13:14:40.862Z,215
2017-08-14T13:15:55.490Z,155
2017-08-14T13:16:40.954Z,175
2017-08-14T13:17:55.558Z,155
2017-08-14T13:18:40.965Z,155
2017-08-14T13:19:40.676Z,155
2017-08-14T13:20:40.730Z,210
2017-08-14T13:21:41.050Z,215
2017-08-14T13:22:41.099Z,215
2017-08-14T13:23:41.109Z,215
2017-08-14T13:24:41.153Z,215
2017-08-14T13:26:41.220Z,210
2017-08-14T13:27:55.815Z,205
2017-08-14T13:28:41.247Z,205
2017-08-14T13:29:55.949Z,200
2017-08-14T13:30:40.698Z,200
2017-08-14T13:32:41.364Z,130
2017-08-14T13:33:41.406Z,190
2017-08-14T13:34:41.438Z,190
2017-08-14T13:35:41.473Z,195
2017-08-14T13:36:56.088Z,195
2017-08-14T13:37:41.216Z,195
2017-08-14T13:38:41.534Z,195
2017-08-14T13:39:56.178Z,195
2017-08-14T13:40:41.586Z,190
2017-08-14T13:41:41.340Z,190
2017-08-14T13:42:41.339Z,190
2017-08-14T13:43:41.393Z,190
2017-08-14T13:44:41.742Z,190
2017-08-14T13:45:41.473Z,190
2017-08-14T13:46:41.467Z,190
2017-08-14T13:47:41.822Z,195
2017-08-14T13:48:56.485Z,115
2017-08-14T13:49:56.480Z,115
2017-08-14T13:50:56.189Z,110
2017-08-14T13:51:41.914Z,115
2017-08-14T13:52:41.979Z,185
2017-08-14T13:53:41.672Z,185
2017-08-14T13:54:42.012Z,185
2017-08-14T13:55:56.317Z,185
2017-08-14T13:56:41.748Z,185
2017-08-14T13:57:41.799Z,185
2017-08-14T13:58:56.704Z,185
2017-08-14T13:59:56.778Z,185
2017-08-14T14:00:42.195Z,190
2017-08-14T14:01:42.207Z,190
2017-08-14T14:02:56.856Z,195
2017-08-14T14:03:41.969Z,140
2017-08-14T14:04:56.892Z,115
2017-08-14T14:05:42.051Z,120
2017-08-14T14:06:42.042Z,145
2017-08-14T14:07:42.086Z,120
2017-08-14T14:08:41.785Z,115
2017-08-14T14:09:42.158Z,150
2017-08-14T14:10:41.850Z,190
2017-08-14T14:11:57.119Z,190
2017-08-14T14:12:42.229Z,185
2017-08-14T14:13:42.235Z,180
2017-08-14T14:14:42.279Z,185
2017-08-14T14:15:42.307Z,185
2017-08-14T14:16:56.940Z,185
2017-08-14T14:18:42.704Z,185
2017-08-14T14:19:41.793Z,185
2017-08-14T14:20:57.372Z,185
2017-08-14T14:21:42.170Z,185
2017-08-14T14:22:42.874Z,190
2017-08-14T14:23:42.868Z,190
2017-08-14T14:25:42.912Z,185
2017-08-14T14:26:57.512Z,190
2017-08-14T14:27:57.259Z,185
2017-08-14T14:28:43.003Z,180
2017-08-14T14:29:42.721Z,185
2017-08-14T14:30:43.047Z,185
2017-08-14T14:31:43.081Z,180
2017-08-14T14:32:57.709Z,180
2017-08-14T14:33:43.146Z,180
2017-08-14T14:34:43.160Z,180
2017-08-14T14:35:43.194Z,180
2017-08-14T14:36:42.907Z,180
2017-08-14T14:37:43.216Z,175
2017-08-14T14:38:43.305Z,150
2017-08-14T14:39:43.309Z,175
2017-08-14T14:40:43.349Z,175
2017-08-14T14:41:57.987Z,180
2017-08-14T14:42:57.674Z,180
2017-08-14T14:43:43.445Z,180